Time;durP1;ratioP1;P1;durP2;ratioP2;P2;SDS_P1;SDS_P2;PMS_P1;PMS_P2;Temp;Humidity;BMP_temperature;BMP_pressure;BME280_temperature;BME280_humidity;BME280_pressure;Samples;Min_cycle;Max_cycle;Signal;HPM_P1;HPM_P2
2021/07/05 00:02:09;;;;;;;3.92;3.50;;;;;;;18.16;100.00;97206.31;5050568;28;20028;-75
2021/07/05 00:04:36;;;;;;;4.25;3.30;;;;;;;18.21;100.00;97203.22;5022886;28;20386;-76
2021/07/05 00:07:01;;;;;;;4.60;3.30;;;;;;;18.23;100.00;97200.13;5030474;28;20072;-75
2021/07/05 00:09:27;;;;;;;4.07;3.28;;;;;;;18.20;100.00;97210.72;5030575;28;20033;-74
2021/07/05 00:11:53;;;;;;;5.70;3.47;;;;;;;18.17;100.00;97205.13;5030338;28;20424;-75
2021/07/05 00:14:19;;;;;;;5.38;3.97;;;;;;;18.08;100.00;97210.88;5030415;28;20033;-74
2021/07/05 00:16:44;;;;;;;3.38;3.08;;;;;;;18.10;100.00;97199.44;5039587;28;20481;-74
2021/07/05 00:19:10;;;;;;;4.40;3.20;;;;;;;18.10;100.00;97207.75;5050282;28;20079;-74
2021/07/05 00:21:35;;;;;;;3.92;2.85;;;;;;;18.11;100.00;97203.81;5050358;28;20032;-74
2021/07/05 00:24:02;;;;;;;4.18;3.20;;;;;;;18.17;100.00;97211.47;5050247;28;20025;-75
2021/07/05 00:26:28;;;;;;;3.55;2.67;;;;;;;18.15;100.00;97208.25;5049972;28;20056;-79
2021/07/05 00:28:53;;;;;;;2.83;2.33;;;;;;;18.02;100.00;97204.03;5050299;28;20450;-75
2021/07/05 00:31:18;;;;;;;7.93;2.50;;;;;;;18.11;100.00;97218.44;5050121;28;20017;-75
2021/07/05 00:33:44;;;;;;;3.00;2.63;;;;;;;18.13;100.00;97210.59;5050261;28;20753;-75
2021/07/05 00:36:10;;;;;;;3.55;2.30;;;;;;;18.12;100.00;97217.28;5050303;28;20025;-75
2021/07/05 00:38:35;;;;;;;2.40;2.20;;;;;;;18.04;100.00;97207.22;5052373;28;20424;-75
2021/07/05 00:41:01;;;;;;;3.22;2.70;;;;;;;17.96;100.00;97216.53;5054449;28;20029;-74
2021/07/05 00:43:26;;;;;;;2.80;2.40;;;;;;;18.02;100.00;97209.56;5035876;28;20468;-75
2021/07/05 00:45:52;;;;;;;3.47;3.03;;;;;;;17.97;100.00;97209.84;5053946;28;20036;-75
2021/07/05 00:48:17;;;;;;;2.53;2.28;;;;;;;17.99;100.00;97221.34;5054019;28;20041;-75
2021/07/05 00:50:42;;;;;;;4.22;2.42;;;;;;;17.90;100.00;97214.41;5054167;28;20120;-75
2021/07/05 00:53:08;;;;;;;3.78;2.13;;;;;;;17.81;100.00;97228.44;5035607;28;20024;-74
2021/07/05 00:55:34;;;;;;;2.42;2.10;;;;;;;17.83;100.00;97219.78;5053665;28;20039;-74
2021/07/05 00:58:00;;;;;;;3.50;1.70;;;;;;;17.73;100.00;97215.59;5053261;28;20032;-74
2021/07/05 01:00:27;;;;;;;4.07;1.85;;;;;;;17.63;100.00;97214.22;5053656;28;20021;-73
2021/07/05 01:02:54;;;;;;;2.20;1.77;;;;;;;17.63;100.00;97230.00;5053671;28;20542;-75
2021/07/05 01:05:21;;;;;;;5.95;2.28;;;;;;;17.67;100.00;97236.41;5053518;28;20029;-73
2021/07/05 01:07:48;;;;;;;3.17;2.20;;;;;;;17.74;100.00;97231.03;5053220;28;20033;-74
2021/07/05 01:10:17;;;;;;;5.00;2.70;;;;;;;17.86;100.00;97239.22;5053821;28;20056;-75
2021/07/05 01:12:43;;;;;;;2.83;2.05;;;;;;;17.74;100.00;97235.78;5053773;28;20029;-73
2021/07/05 01:15:13;;;;;;;3.65;1.48;;;;;;;17.73;100.00;97223.91;5053538;28;20032;-74
2021/07/05 01:17:40;;;;;;;2.47;1.67;;;;;;;17.63;100.00;97219.75;5053435;28;20485;-74
2021/07/05 01:20:07;;;;;;;4.32;1.45;;;;;;;17.64;100.00;97237.13;5053285;28;20037;-74
2021/07/05 01:22:33;;;;;;;6.50;1.42;;;;;;;17.35;100.00;97240.34;5035253;28;20116;-73
2021/07/05 01:24:58;;;;;;;0.77;0.77;;;;;;;17.49;100.00;97241.47;5052678;28;20112;-74
2021/07/05 01:27:24;;;;;;;1.42;1.02;;;;;;;17.56;100.00;97238.13;5035116;28;20025;-74
2021/07/05 01:29:50;;;;;;;1.55;1.45;;;;;;;17.44;100.00;97243.72;5052654;28;20029;-74
2021/07/05 01:32:15;;;;;;;2.10;1.50;;;;;;;17.41;100.00;97252.72;5035598;28;20658;-75
2021/07/05 01:34:41;;;;;;;2.80;1.50;;;;;;;17.29;100.00;97247.28;5035066;28;20048;-74
2021/07/05 01:37:08;;;;;;;1.63;1.52;;;;;;;17.25;100.00;97246.38;5053385;28;20033;-74
2021/07/05 01:39:34;;;;;;;6.45;1.83;;;;;;;17.21;100.00;97248.25;5035219;28;20013;-74
2021/07/05 01:42:00;;;;;;;3.45;1.77;;;;;;;17.31;100.00;97253.25;5053205;28;20067;-74
2021/07/05 01:44:25;;;;;;;3.83;1.55;;;;;;;17.27;100.00;97227.47;5035055;28;20021;-74
2021/07/05 01:46:51;;;;;;;1.42;1.33;;;;;;;17.31;100.00;97258.78;5053030;28;20052;-74
2021/07/05 01:49:16;;;;;;;3.85;1.40;;;;;;;17.26;100.00;97248.78;5051993;28;20374;-75
2021/07/05 01:51:42;;;;;;;2.08;1.20;;;;;;;17.28;100.00;97263.06;5052788;28;20028;-75
2021/07/05 01:54:07;;;;;;;1.77;1.23;;;;;;;17.31;100.00;97256.03;5035028;28;20039;-74
2021/07/05 01:56:33;;;;;;;2.05;1.20;;;;;;;17.43;100.00;97264.22;5052487;28;20029;-76
2021/07/05 01:58:59;;;;;;;1.35;1.25;;;;;;;17.44;100.00;97268.59;5052860;28;20017;-74
2021/07/05 02:01:25;;;;;;;1.55;1.42;;;;;;;17.58;100.00;97280.03;5052806;28;20112;-74
2021/07/05 02:03:50;;;;;;;1.50;1.40;;;;;;;17.50;100.00;97281.81;5052876;28;20104;-74
2021/07/05 02:06:16;;;;;;;2.65;1.15;;;;;;;17.56;100.00;97285.94;5052801;28;20550;-74
2021/07/05 02:08:42;;;;;;;1.30;1.20;;;;;;;17.44;100.00;97296.25;5052804;28;20029;-75
2021/07/05 02:11:08;;;;;;;1.25;1.02;;;;;;;17.25;100.00;97279.56;5053105;28;20020;-76
2021/07/05 02:13:36;;;;;;;2.17;1.25;;;;;;;17.28;100.00;97285.19;5034790;28;20059;-75
2021/07/05 02:16:02;;;;;;;1.00;0.82;;;;;;;17.39;100.00;97291.78;5052521;28;20029;-74
2021/07/05 02:18:29;;;;;;;3.03;0.85;;;;;;;17.38;100.00;97303.22;5052359;28;20429;-74
2021/07/05 02:20:57;;;;;;;1.20;0.98;;;;;;;17.35;100.00;97307.50;5052455;28;20473;-74
2021/07/05 02:23:23;;;;;;;1.70;0.98;;;;;;;17.38;100.00;97301.25;5052472;28;20035;-75
2021/07/05 02:25:49;;;;;;;1.95;1.20;;;;;;;17.33;100.00;97300.69;5052311;28;20029;-74
2021/07/05 02:28:26;;;;;;;1.30;1.00;;;;;;;17.38;100.00;97289.38;5052629;28;20029;-74
2021/07/05 02:30:52;;;;;;;2.03;0.85;;;;;;;17.36;100.00;97291.69;5052359;28;20035;-74
2021/07/05 02:33:22;;;;;;;1.77;1.05;;;;;;;17.29;100.00;97283.22;5052196;28;20029;-75
2021/07/05 02:35:49;;;;;;;1.15;1.02;;;;;;;17.32;100.00;97277.78;5052481;28;20120;-75
2021/07/05 02:38:14;;;;;;;1.40;1.08;;;;;;;17.25;100.00;97285.09;5055598;28;20033;-77
2021/07/05 02:40:45;;;;;;;1.10;1.00;;;;;;;17.10;100.00;97287.47;5055739;28;20393;-74
2021/07/05 02:43:12;;;;;;;3.13;0.70;;;;;;;17.02;100.00;97280.16;5052289;28;20056;-74
2021/07/05 02:45:41;;;;;;;2.03;1.27;;;;;;;17.11;100.00;97280.78;5052112;28;20079;-75
2021/07/05 02:48:09;;;;;;;1.13;0.85;;;;;;;16.95;100.00;97274.41;5033764;28;20413;-74
2021/07/05 02:50:36;;;;;;;4.10;1.02;;;;;;;17.13;100.00;97278.47;5051969;28;20056;-74
2021/07/05 02:53:03;;;;;;;1.75;1.52;;;;;;;17.11;100.00;97279.97;5051788;28;20029;-74
2021/07/05 02:55:28;;;;;;;2.78;1.00;;;;;;;17.18;100.00;97282.13;5051849;28;20025;-75
2021/07/05 02:57:54;;;;;;;2.33;1.50;;;;;;;17.06;100.00;97289.34;5051090;28;20555;-77
2021/07/05 03:00:21;;;;;;;2.72;1.80;;;;;;;17.09;100.00;97298.88;5051798;28;20040;-75
2021/07/05 03:02:47;;;;;;;2.63;1.45;;;;;;;16.84;100.00;97298.22;5051689;28;20028;-77
2021/07/05 03:05:16;;;;;;;2.58;1.33;;;;;;;17.04;100.00;97319.28;5051732;28;20024;-75
2021/07/05 03:07:42;;;;;;;1.20;1.10;;;;;;;16.94;100.00;97319.81;5051491;28;20029;-75
2021/07/05 03:10:10;;;;;;;1.45;1.33;;;;;;;17.10;100.00;97317.09;5051758;28;20496;-75
2021/07/05 03:12:36;;;;;;;2.92;1.65;;;;;;;17.07;100.00;97324.09;5051352;28;20029;-76
2021/07/05 03:15:04;;;;;;;3.97;1.10;;;;;;;16.91;100.00;97326.03;5033173;28;20025;-75
2021/07/05 03:17:30;;;;;;;1.85;0.85;;;;;;;16.97;100.00;97318.28;5051330;28;20029;-75
2021/07/05 03:19:55;;;;;;;4.85;1.48;;;;;;;16.91;100.00;97317.75;5051435;28;20029;-74
2021/07/05 03:22:21;;;;;;;1.35;0.75;;;;;;;17.14;100.00;97320.72;5033471;28;20087;-74
2021/07/05 03:24:46;;;;;;;2.10;1.42;;;;;;;17.31;100.00;97322.38;5050796;28;20028;-73
2021/07/05 03:27:13;;;;;;;1.55;1.38;;;;;;;17.34;100.00;97325.25;5050884;28;20027;-76
2021/07/05 03:29:39;;;;;;;1.52;1.25;;;;;;;17.31;100.00;97325.94;5051037;28;20025;-74
2021/07/05 03:32:06;;;;;;;1.25;1.02;;;;;;;17.35;100.00;97326.03;5051123;28;20077;-75
2021/07/05 03:34:32;;;;;;;1.85;1.23;;;;;;;17.30;100.00;97331.81;5035837;28;20033;-75
2021/07/05 03:36:58;;;;;;;1.27;0.82;;;;;;;17.29;100.00;97330.22;5050859;28;20393;-74
2021/07/05 03:39:24;;;;;;;1.65;1.10;;;;;;;17.33;100.00;97331.91;5043088;28;20036;-74
2021/07/05 03:41:49;;;;;;;1.25;1.00;;;;;;;17.35;100.00;97324.09;5031415;28;20704;-74
2021/07/05 03:44:15;;;;;;;1.88;1.20;;;;;;;17.36;100.00;97316.56;5030586;28;20482;-74
2021/07/05 03:46:40;;;;;;;3.40;1.30;;;;;;;17.43;100.00;97328.63;5030780;28;20391;-75
2021/07/05 03:49:06;;;;;;;2.17;0.80;;;;;;;17.29;100.00;97322.72;5013104;28;20029;-74
2021/07/05 03:51:32;;;;;;;2.40;1.00;;;;;;;17.39;100.00;97337.97;5038184;28;20015;-76
2021/07/05 03:53:58;;;;;;;1.73;0.98;;;;;;;17.37;100.00;97343.88;5050389;28;20476;-73
2021/07/05 03:56:23;;;;;;;2.00;1.30;;;;;;;17.53;100.00;97352.19;5050446;28;20028;-75
2021/07/05 03:58:48;;;;;;;6.13;1.38;;;;;;;17.54;100.00;97353.81;5050409;28;20436;-75
2021/07/05 04:01:14;;;;;;;1.73;0.93;;;;;;;17.31;100.00;97361.09;5050451;28;20037;-74
2021/07/05 04:03:39;;;;;;;1.35;1.10;;;;;;;17.31;100.00;97363.84;5032595;28;20032;-74
2021/07/05 04:06:05;;;;;;;2.55;1.00;;;;;;;17.28;100.00;97356.25;5032232;28;20033;-74
2021/07/05 04:08:33;;;;;;;2.03;0.90;;;;;;;17.33;100.00;97378.09;5050503;28;20028;-75
2021/07/05 04:10:58;;;;;;;1.10;0.82;;;;;;;17.49;100.00;97371.47;5050828;28;20033;-76
2021/07/05 04:13:26;;;;;;;2.35;1.00;;;;;;;17.49;100.00;97368.69;5049809;28;20451;-74
2021/07/05 04:15:53;;;;;;;2.72;0.80;;;;;;;17.58;100.00;97377.66;5050528;28;20533;-74
2021/07/05 04:18:19;;;;;;;1.90;1.42;;;;;;;17.51;100.00;97371.91;5050048;28;20096;-74
2021/07/05 04:20:44;;;;;;;0.75;0.60;;;;;;;17.59;100.00;97375.69;5032307;28;20092;-73
2021/07/05 04:23:10;;;;;;;2.15;1.00;;;;;;;17.68;100.00;97370.81;5050277;28;20024;-74
2021/07/05 04:25:35;;;;;;;2.08;1.10;;;;;;;17.87;100.00;97379.19;5050136;28;20424;-74
2021/07/05 04:28:03;;;;;;;5.00;1.50;;;;;;;17.89;100.00;97365.81;5042976;28;20383;-74
2021/07/05 04:30:29;;;;;;;1.63;1.10;;;;;;;17.87;100.00;97365.38;5030377;28;20018;-74
2021/07/05 04:32:55;;;;;;;3.03;1.10;;;;;;;17.87;100.00;97378.41;5012114;28;20053;-74
2021/07/05 04:35:21;;;;;;;1.95;1.30;;;;;;;17.86;100.00;97374.81;5029792;28;20061;-74
2021/07/05 04:37:49;;;;;;;1.70;1.10;;;;;;;17.79;100.00;97376.63;5028985;28;20486;-75
2021/07/05 04:40:21;;;;;;;2.08;1.65;;;;;;;17.73;100.00;97395.44;5030514;28;20034;-74
2021/07/05 04:42:47;;;;;;;3.08;1.77;;;;;;;17.76;100.00;97403.00;5029946;28;20033;-75
2021/07/05 04:45:15;;;;;;;2.65;1.20;;;;;;;17.73;100.00;97406.50;5013796;28;20026;-84
2021/07/05 04:47:42;;;;;;;2.88;1.42;;;;;;;17.70;100.00;97401.66;5036634;28;20049;-82
2021/07/05 04:50:09;;;;;;;3.28;1.38;;;;;;;17.61;100.00;97412.09;5030343;28;20029;-79
2021/07/05 04:52:35;;;;;;;3.42;1.42;;;;;;;17.60;100.00;97399.44;5012921;28;20049;-75
2021/07/05 04:55:01;;;;;;;1.67;1.38;;;;;;;17.67;100.00;97402.38;5013521;28;20037;-76
2021/07/05 04:57:27;;;;;;;1.13;1.00;;;;;;;17.65;100.00;97396.41;5032499;28;20126;-81
2021/07/05 04:59:55;;;;;;;1.80;1.25;;;;;;;17.57;100.00;97398.16;5030854;28;20033;-77
2021/07/05 05:02:24;;;;;;;3.55;1.50;;;;;;;17.57;100.00;97397.38;5030367;28;20037;-79
2021/07/05 05:04:50;;;;;;;3.47;1.40;;;;;;;17.67;100.00;97401.59;5012989;28;20032;-79
2021/07/05 05:07:16;;;;;;;2.83;1.35;;;;;;;17.61;100.00;97401.03;5012804;28;20112;-80
2021/07/05 05:09:41;;;;;;;8.75;1.73;;;;;;;17.84;100.00;97391.00;5030629;28;20033;-76
2021/07/05 05:12:07;;;;;;;1.48;1.20;;;;;;;18.01;100.00;97396.16;5031317;28;20028;-76
2021/07/05 05:14:33;;;;;;;3.40;1.45;;;;;;;17.76;100.00;97394.72;5030461;28;20033;-77
2021/07/05 05:16:58;;;;;;;6.00;2.13;;;;;;;17.73;100.00;97406.50;5030050;28;20025;-78
2021/07/05 05:19:24;;;;;;;2.22;1.17;;;;;;;17.82;100.00;97409.91;5030280;28;20624;-78
2021/07/05 05:21:49;;;;;;;2.35;1.15;;;;;;;17.79;100.00;97405.09;5029812;28;20417;-75
2021/07/05 05:24:15;;;;;;;2.47;1.83;;;;;;;17.83;100.00;97403.22;5029357;28;20021;-77
2021/07/05 05:26:40;;;;;;;3.42;1.15;;;;;;;17.85;100.00;97417.50;5033181;28;20041;-75
2021/07/05 05:29:06;;;;;;;1.58;1.13;;;;;;;17.90;100.00;97411.69;5049089;28;20021;-75
2021/07/05 05:31:34;;;;;;;2.15;1.55;;;;;;;17.83;100.00;97414.28;5052997;28;20064;-77
2021/07/05 05:34:00;;;;;;;2.28;1.20;;;;;;;17.91;100.00;97412.50;5034697;28;20047;-75
2021/07/05 05:36:25;;;;;;;1.85;1.48;;;;;;;18.08;100.00;97406.59;5052441;28;20473;-75
2021/07/05 05:38:51;;;;;;;5.40;1.85;;;;;;;18.40;100.00;97429.53;5053102;28;20043;-74
2021/07/05 05:41:16;;;;;;;4.65;1.38;;;;;;;18.67;100.00;97428.63;5056934;28;20113;-73
2021/07/05 05:43:42;;;;;;;2.33;1.70;;;;;;;18.84;100.00;97422.69;5039202;28;20474;-74
2021/07/05 05:46:14;;;;;;;3.13;2.10;;;;;;;19.23;100.00;97410.47;5052791;28;20033;-74
2021/07/05 05:48:41;;;;;;;4.50;2.30;;;;;;;19.30;97.20;97411.78;5052947;28;20025;-74
2021/07/05 05:51:06;;;;;;;4.07;1.70;;;;;;;19.25;98.87;97405.38;5052572;28;20032;-74
2021/07/05 05:53:31;;;;;;;2.45;1.73;;;;;;;19.01;99.91;97419.53;5034873;28;20021;-76
2021/07/05 05:55:57;;;;;;;2.42;1.70;;;;;;;19.17;99.03;97423.00;5052814;28;20053;-74
2021/07/05 05:58:22;;;;;;;3.53;1.73;;;;;;;19.35;95.68;97426.16;5052768;28;20107;-75
2021/07/05 06:00:47;;;;;;;5.00;2.00;;;;;;;19.64;94.46;97427.56;5048587;28;20025;-75
2021/07/05 06:03:13;;;;;;;2.40;2.10;;;;;;;19.54;95.20;97422.63;5052655;28;20048;-74
2021/07/05 06:05:38;;;;;;;5.32;2.10;;;;;;;19.74;93.56;97433.31;5052785;28;20029;-74
2021/07/05 06:08:04;;;;;;;5.18;1.95;;;;;;;19.35;97.52;97436.47;5052394;28;20033;-74
2021/07/05 06:10:29;;;;;;;2.88;1.98;;;;;;;19.10;99.42;97439.53;5053034;28;20025;-74
2021/07/05 06:12:56;;;;;;;5.13;1.85;;;;;;;19.14;96.19;97440.38;5051994;28;20036;-74
2021/07/05 06:15:23;;;;;;;3.35;1.95;;;;;;;19.21;96.91;97446.09;5052023;28;20028;-74
2021/07/05 06:17:49;;;;;;;2.88;2.00;;;;;;;19.37;95.48;97445.22;5051689;28;20029;-75
2021/07/05 06:20:15;;;;;;;5.50;2.50;;;;;;;19.34;94.61;97457.03;5036365;28;20529;-75
2021/07/05 06:22:43;;;;;;;6.13;2.20;;;;;;;19.77;94.05;97459.53;5031653;28;20032;-74
2021/07/05 06:25:10;;;;;;;6.13;2.50;;;;;;;19.92;95.71;97466.97;5031945;28;20039;-74
2021/07/05 06:27:36;;;;;;;4.38;2.33;;;;;;;19.80;95.80;97469.88;5031916;28;20060;-75
2021/07/05 06:30:02;;;;;;;4.25;2.17;;;;;;;20.09;93.24;97477.59;5013834;28;20028;-75
2021/07/05 06:32:27;;;;;;;5.22;1.73;;;;;;;20.36;91.93;97486.03;5014300;28;20541;-75
2021/07/05 06:34:53;;;;;;;4.95;1.80;;;;;;;20.47;89.23;97487.81;5032072;28;20037;-74
2021/07/05 06:37:18;;;;;;;3.00;1.77;;;;;;;20.50;89.91;97503.75;5031515;28;20021;-75
2021/07/05 06:39:44;;;;;;;2.33;1.75;;;;;;;20.25;91.57;97506.06;5031998;28;20489;-74
2021/07/05 06:42:09;;;;;;;1.55;1.08;;;;;;;20.54;88.99;97515.75;5014895;28;20030;-74
2021/07/05 06:44:34;;;;;;;5.75;1.45;;;;;;;20.76;89.73;97525.25;5031896;28;20094;-76
2021/07/05 06:47:00;;;;;;;2.35;1.08;;;;;;;21.20;84.47;97531.94;5030889;28;20525;-75
2021/07/05 06:49:26;;;;;;;7.05;1.35;;;;;;;21.19;84.83;97529.50;5013416;28;20032;-75
2021/07/05 06:51:53;;;;;;;2.95;1.27;;;;;;;21.40;83.63;97517.88;5030888;28;20080;-76
2021/07/05 06:54:18;;;;;;;2.03;1.08;;;;;;;21.47;85.21;97506.84;5032042;28;20386;-74
2021/07/05 06:56:43;;;;;;;2.28;1.45;;;;;;;21.61;85.59;97512.59;5044833;28;20028;-77
2021/07/05 06:59:09;;;;;;;2.90;1.17;;;;;;;21.27;83.89;97508.94;5051901;28;20105;-76
2021/07/05 07:01:35;;;;;;;7.13;1.33;;;;;;;21.19;84.71;97519.19;5042485;28;20028;-75
2021/07/05 07:04:00;;;;;;;2.22;1.27;;;;;;;21.30;83.38;97517.34;5023348;28;20044;-75
2021/07/05 07:06:26;;;;;;;2.50;1.10;;;;;;;21.32;85.00;97517.78;5042551;28;20048;-77
2021/07/05 07:08:51;;;;;;;1.70;1.20;;;;;;;21.23;82.86;97496.97;5043682;28;21380;-76
2021/07/05 07:11:19;;;;;;;2.00;1.00;;;;;;;21.71;80.55;97526.63;5045409;28;20031;-76
2021/07/05 07:13:44;;;;;;;5.00;1.10;;;;;;;22.00;80.05;97516.69;5046455;28;20038;-76
2021/07/05 07:16:10;;;;;;;1.20;0.80;;;;;;;22.07;80.51;97532.69;5044829;28;20033;-77
2021/07/05 07:21:10;;;;;;;1.70;1.23;;;;;;;22.85;76.88;97531.47;5040187;28;20068;-76
2021/07/05 07:23:36;;;;;;;2.30;1.30;;;;;;;22.79;79.92;97535.81;5037549;28;20106;-75
2021/07/05 07:26:02;;;;;;;4.78;1.13;;;;;;;22.72;78.06;97519.00;5020132;28;20522;-75
2021/07/05 07:28:29;;;;;;;1.95;1.13;;;;;;;22.97;77.14;97539.53;5017974;28;20032;-76
2021/07/05 07:30:54;;;;;;;3.13;1.10;;;;;;;23.31;74.85;97538.19;5035545;28;20026;-77
2021/07/05 07:33:19;;;;;;;2.03;1.27;;;;;;;24.05;72.59;97546.19;5011261;28;20032;-76
2021/07/05 07:35:46;;;;;;;1.13;1.02;;;;;;;23.36;74.76;97523.09;5029163;28;20135;-76
2021/07/05 07:38:15;;;;;;;1.15;1.08;;;;;;;22.74;69.91;97536.97;5042955;28;20025;-77
2021/07/05 07:40:42;;;;;;;1.90;1.42;;;;;;;22.81;70.42;97533.44;5038214;28;20473;-75
2021/07/05 07:43:10;;;;;;;1.48;1.38;;;;;;;22.20;73.48;97526.47;5038677;28;20029;-77
2021/07/05 07:45:36;;;;;;;2.42;1.40;;;;;;;22.29;71.90;97521.38;5021347;28;20027;-78
2021/07/05 07:48:01;;;;;;;1.70;1.45;;;;;;;22.29;72.87;97518.59;5038893;28;20037;-76
2021/07/05 07:50:27;;;;;;;2.17;1.25;;;;;;;22.62;70.44;97528.03;5038127;28;20086;-74
2021/07/05 07:52:56;;;;;;;4.90;1.55;;;;;;;22.65;69.94;97521.69;5033271;28;20044;-74
2021/07/05 07:55:21;;;;;;;1.50;0.85;;;;;;;22.60;70.01;97519.28;5011447;28;20059;-74
2021/07/05 07:57:48;;;;;;;1.70;1.48;;;;;;;22.93;70.42;97527.53;5011586;28;20026;-75
2021/07/05 08:00:15;;;;;;;1.05;0.98;;;;;;;23.39;67.21;97528.72;5028928;28;20108;-75
2021/07/05 08:02:41;;;;;;;1.35;1.10;;;;;;;23.84;65.25;97537.72;5011707;28;20033;-74
2021/07/05 08:05:07;;;;;;;3.25;1.33;;;;;;;24.18;65.07;97530.72;5028951;28;20026;-74
2021/07/05 08:07:36;;;;;;;1.30;0.90;;;;;;;25.55;60.03;97524.38;5011148;28;20029;-73
2021/07/05 08:10:03;;;;;;;3.53;1.48;;;;;;;25.92;57.25;97543.47;5031666;28;20028;-78
2021/07/05 08:12:29;;;;;;;1.23;1.08;;;;;;;27.43;54.13;97542.91;5024960;28;20525;-75
2021/07/05 08:14:56;;;;;;;0.88;0.88;;;;;;;27.28;53.96;97542.25;5038695;28;20050;-73
2021/07/05 08:17:21;;;;;;;1.90;1.00;;;;;;;26.69;55.79;97537.88;5036910;28;20033;-76
2021/07/05 08:19:47;;;;;;;1.25;1.13;;;;;;;27.05;54.99;97542.03;5039224;28;20037;-74
2021/07/05 08:22:12;;;;;;;2.95;1.10;;;;;;;27.93;51.81;97537.53;5044472;28;20104;-77
2021/07/05 08:24:38;;;;;;;1.30;1.13;;;;;;;28.27;50.44;97543.97;5020673;28;20021;-77
2021/07/05 08:27:03;;;;;;;3.90;0.93;;;;;;;28.10;50.31;97544.97;5049070;28;20414;-80
2021/07/05 08:29:29;;;;;;;4.22;1.50;;;;;;;28.04;51.12;97544.63;5037553;28;20038;-74
2021/07/05 08:31:54;;;;;;;1.77;1.35;;;;;;;26.70;53.96;97545.06;5031945;28;20382;-75
2021/07/05 08:34:20;;;;;;;1.50;1.25;;;;;;;25.37;56.58;97548.78;5049377;28;20442;-75
2021/07/05 08:36:45;;;;;;;1.85;1.05;;;;;;;25.10;57.41;97553.22;5042670;28;20128;-74
2021/07/05 08:39:13;;;;;;;2.10;1.50;;;;;;;24.45;59.97;97556.31;5028263;28;20386;-74
2021/07/05 08:41:40;;;;;;;1.30;1.20;;;;;;;24.75;60.46;97562.38;5039558;28;20017;-75
2021/07/05 08:44:07;;;;;;;3.58;1.17;;;;;;;24.68;61.36;97573.56;5031011;28;20028;-75
2021/07/05 08:46:33;;;;;;;2.35;1.30;;;;;;;24.74;61.28;97583.16;5047617;28;20044;-75
2021/07/05 08:48:59;;;;;;;1.55;1.42;;;;;;;25.34;61.42;97580.38;5047595;28;20554;-75
2021/07/05 08:51:25;;;;;;;1.70;1.58;;;;;;;24.38;61.24;97579.47;5049031;28;20036;-76
2021/07/05 08:53:52;;;;;;;3.22;1.48;;;;;;;23.68;64.29;97581.97;5048933;28;20021;-74
2021/07/05 08:56:18;;;;;;;3.65;1.20;;;;;;;23.93;63.24;97585.69;5049162;28;20432;-77
2021/07/05 08:58:46;;;;;;;2.47;1.33;;;;;;;24.39;61.45;97597.88;5050085;28;20036;-77
2021/07/05 09:01:12;;;;;;;1.25;1.10;;;;;;;25.08;59.40;97589.22;5053062;28;20087;-74
2021/07/05 09:03:38;;;;;;;1.75;1.55;;;;;;;26.10;56.66;97593.84;5053213;28;20040;-75
2021/07/05 09:06:14;;;;;;;1.92;1.20;;;;;;;25.67;56.36;97598.81;5052706;28;20100;-74
2021/07/05 09:08:44;;;;;;;1.20;1.10;;;;;;;25.84;57.91;97586.75;5053213;28;20025;-77
2021/07/05 09:11:16;;;;;;;1.40;1.30;;;;;;;24.88;61.03;97594.41;5053669;28;20488;-76
2021/07/05 09:13:49;;;;;;;1.40;1.30;;;;;;;24.63;62.43;97587.13;5052462;28;20473;-76
2021/07/05 09:16:31;;;;;;;1.67;1.20;;;;;;;24.68;61.55;97578.34;5052593;28;20025;-76
2021/07/05 09:18:57;;;;;;;4.20;1.60;;;;;;;25.06;62.57;97582.44;5036439;28;20033;-74
2021/07/05 09:21:25;;;;;;;3.90;1.63;;;;;;;24.97;61.23;97582.81;5032818;28;20056;-75
2021/07/05 09:24:01;;;;;;;1.60;1.42;;;;;;;25.28;61.53;97582.00;5032286;28;20478;-76
2021/07/05 09:26:32;;;;;;;4.82;1.30;;;;;;;24.92;56.35;97591.59;5032678;28;20040;-75
2021/07/05 09:29:03;;;;;;;2.15;1.25;;;;;;;25.23;56.36;97574.00;5032641;28;20025;-77
2021/07/05 09:31:47;;;;;;;2.33;1.30;;;;;;;25.24;57.10;97575.63;5033688;28;20025;-76
2021/07/05 09:34:16;;;;;;;1.55;1.20;;;;;;;25.29;55.56;97580.81;5035337;28;20029;-80
2021/07/05 09:36:42;;;;;;;3.05;1.45;;;;;;;25.17;58.97;97580.41;5033323;28;20125;-77
2021/07/05 09:39:13;;;;;;;4.13;1.40;;;;;;;25.32;57.67;97582.81;5032928;28;20072;-78
2021/07/05 09:41:39;;;;;;;1.85;1.55;;;;;;;24.99;55.37;97578.44;5032890;28;20022;-77
2021/07/05 09:44:14;;;;;;;1.50;1.40;;;;;;;25.29;55.51;97583.59;5032375;28;20028;-76
2021/07/05 09:46:46;;;;;;;6.30;1.77;;;;;;;25.07;55.68;97581.22;5032019;28;20498;-77
2021/07/05 09:49:30;;;;;;;1.77;1.30;;;;;;;25.70;56.40;97585.97;5014799;28;20029;-77
2021/07/05 09:52:07;;;;;;;1.88;1.50;;;;;;;26.06;54.83;97585.47;5014764;28;20393;-76
2021/07/05 09:54:34;;;;;;;1.30;1.15;;;;;;;26.17;55.38;97591.06;5031985;28;20033;-76
2021/07/05 09:57:01;;;;;;;2.00;1.55;;;;;;;25.32;53.97;97599.59;5032431;28;20422;-78
2021/07/05 09:59:28;;;;;;;1.45;1.20;;;;;;;24.65;54.34;97593.16;5031996;28;20482;-77
2021/07/05 10:01:55;;;;;;;1.40;1.20;;;;;;;24.53;55.36;97588.69;5032491;28;20083;-79
2021/07/05 10:04:37;;;;;;;2.55;1.30;;;;;;;24.39;55.74;97595.06;5031971;28;20478;-76
2021/07/05 10:07:05;;;;;;;1.63;1.00;;;;;;;24.81;54.68;97586.00;5032320;28;20034;-78
2021/07/05 10:09:33;;;;;;;2.08;1.25;;;;;;;24.32;55.28;97594.25;5014341;28;20052;-77
2021/07/05 10:12:17;;;;;;;1.20;1.10;;;;;;;24.44;57.12;97597.47;5031575;28;20147;-76
2021/07/05 10:14:43;;;;;;;2.05;1.30;;;;;;;24.76;56.60;97591.97;5013970;28;20043;-75
2021/07/05 10:17:15;;;;;;;1.92;1.20;;;;;;;25.12;55.53;97586.44;5048609;28;20108;-75
2021/07/05 10:19:41;;;;;;;2.60;1.58;;;;;;;24.86;57.22;97593.19;5014015;28;20462;-77
2021/07/05 10:22:08;;;;;;;2.50;1.35;;;;;;;24.57;57.11;97585.91;5013493;28;20067;-78
2021/07/05 10:24:36;;;;;;;1.63;1.20;;;;;;;24.63;55.88;97573.94;5013285;28;20033;-77
2021/07/05 10:27:02;;;;;;;4.78;1.52;;;;;;;25.03;55.67;97578.41;5014411;28;20120;-76
2021/07/05 10:29:31;;;;;;;1.80;0.98;;;;;;;25.27;51.74;97576.81;5031991;28;20426;-75
2021/07/05 10:31:56;;;;;;;1.50;1.05;;;;;;;25.44;51.26;97568.38;5031795;28;20032;-76
2021/07/05 10:34:22;;;;;;;1.20;1.10;;;;;;;24.65;53.54;97571.56;5031459;28;20033;-74
2021/07/05 10:36:50;;;;;;;1.88;1.27;;;;;;;24.95;52.49;97568.41;5031655;28;20534;-75
2021/07/05 10:39:16;;;;;;;2.58;1.10;;;;;;;24.95;53.22;97576.81;5032913;28;20109;-77
2021/07/05 10:41:42;;;;;;;1.33;1.25;;;;;;;24.75;52.84;97575.56;5031814;28;20020;-75
2021/07/05 10:44:10;;;;;;;3.08;1.13;;;;;;;24.87;52.18;97573.19;5031276;28;20116;-74
2021/07/05 10:46:43;;;;;;;1.20;1.10;;;;;;;25.08;51.25;97569.63;5031680;28;20137;-75
2021/07/05 10:49:31;;;;;;;1.60;1.40;;;;;;;25.14;52.89;97582.03;5031701;28;20021;-73
2021/07/05 10:52:02;;;;;;;1.60;1.50;;;;;;;25.00;53.02;97579.19;5031276;28;20100;-75
2021/07/05 10:54:55;;;;;;;0.75;0.75;;;;;;;25.10;53.65;97575.59;5030689;28;20371;-77
2021/07/05 10:57:46;;;;;;;7.22;2.60;;;;;;;24.62;59.45;97582.75;5028461;28;20451;-78
2021/07/05 11:00:20;;;;;;;2.60;2.40;;;;;;;24.11;62.84;97571.78;5030820;28;20036;-77
2021/07/05 11:02:50;;;;;;;4.65;2.85;;;;;;;23.71;64.41;97573.56;5046136;28;20375;-76
2021/07/05 11:05:37;;;;;;;3.08;2.50;;;;;;;23.48;65.35;97580.63;5050680;28;20061;-81
2021/07/05 11:08:31;;;;;;;4.40;2.40;;;;;;;24.00;64.41;97575.31;5050522;28;20020;-78
2021/07/05 11:11:18;;;;;;;2.53;2.00;;;;;;;24.39;62.55;97564.31;5035771;28;20124;-74
2021/07/05 11:13:45;;;;;;;3.22;2.90;;;;;;;24.67;61.02;97568.34;5037352;28;20033;-75
2021/07/05 11:16:11;;;;;;;3.25;2.55;;;;;;;24.74;60.97;97569.19;5015951;28;20044;-78
2021/07/05 11:18:37;;;;;;;2.95;2.10;;;;;;;25.66;59.29;97579.56;5042990;28;20029;-76
2021/07/05 11:21:07;;;;;;;2.00;1.80;;;;;;;25.42;59.10;97579.19;5049455;28;20027;-79
2021/07/05 11:24:06;;;;;;;2.63;2.40;;;;;;;24.64;61.79;97580.34;5048438;28;20033;-75
2021/07/05 11:26:37;;;;;;;2.25;2.03;;;;;;;24.29;62.44;97593.03;5047560;28;20024;-75
2021/07/05 11:29:15;;;;;;;9.27;2.65;;;;;;;24.57;62.92;97580.31;5046305;28;20017;-77
2021/07/05 11:32:00;;;;;;;2.35;2.00;;;;;;;25.25;60.14;97588.41;5046217;28;20574;-75
2021/07/05 11:34:32;;;;;;;4.72;2.17;;;;;;;25.01;59.98;97578.00;5046098;28;20025;-78